createdAt,value
2023-02-12T00:00:54.220Z,41.92
2023-02-12T00:06:03.199Z,34.30
2023-02-12T00:11:15.044Z,39.20
2023-02-12T00:16:22.816Z,34.97
2023-02-12T00:21:27.879Z,39.53
2023-02-12T00:26:33.866Z,36.83
2023-02-12T00:31:38.359Z,40.22
2023-02-12T00:41:48.676Z,38.67
2023-02-12T00:46:52.867Z,35.80
2023-02-12T00:51:57.255Z,31.00
2023-02-12T00:57:04.311Z,37.63
2023-02-12T01:02:08.479Z,34.72
2023-02-12T01:07:13.293Z,36.72
2023-02-12T01:12:19.071Z,41.13
2023-02-12T01:17:24.747Z,32.95
2023-02-12T01:22:29.389Z,44.00
2023-02-12T01:27:35.451Z,28.98
2023-02-12T01:32:40.394Z,32.85
2023-02-12T01:37:44.616Z,31.90
2023-02-12T01:42:50.434Z,32.15
2023-02-12T01:47:54.887Z,29.88
2023-02-12T01:53:00.616Z,29.95
2023-02-12T01:58:07.240Z,31.63
2023-02-12T02:03:11.990Z,34.78
2023-02-12T02:08:16.730Z,31.45
2023-02-12T02:13:40.622Z,39.45
2023-02-12T02:18:54.224Z,39.58
2023-02-12T02:24:45.876Z,32.95
2023-02-12T02:30:45.579Z,39.72
2023-02-12T02:36:01.086Z,43.20
2023-02-12T02:41:10.429Z,36.58
2023-02-12T02:46:22.053Z,31.27
2023-02-12T02:51:32.068Z,38.30
2023-02-12T02:56:42.274Z,35.75
2023-02-12T03:01:54.096Z,41.08
2023-02-12T03:07:03.337Z,34.55
2023-02-12T03:12:15.744Z,36.85
2023-02-12T03:17:25.947Z,39.00
2023-02-12T03:22:35.744Z,37.72
2023-02-12T03:27:44.578Z,33.88
2023-02-12T03:33:01.263Z,29.77
2023-02-12T03:38:13.141Z,30.20
2023-02-12T03:43:24.264Z,34.08
2023-02-12T03:48:35.050Z,37.25
2023-02-12T03:53:39.520Z,34.15
2023-02-12T03:58:45.467Z,30.35
2023-02-12T04:03:51.435Z,28.85
2023-02-12T04:09:00.292Z,23.15
2023-02-12T04:14:21.759Z,20.13
2023-02-12T04:19:41.316Z,22.33
2023-02-12T04:24:55.940Z,24.17
2023-02-12T04:30:08.898Z,15.57
2023-02-12T04:35:21.820Z,13.65
2023-02-12T04:40:26.734Z,14.73
2023-02-12T04:45:34.012Z,16.95
2023-02-12T04:50:43.991Z,14.50
2023-02-12T04:55:50.688Z,19.27
2023-02-12T05:00:54.901Z,9.93
2023-02-12T05:06:04.785Z,14.93
2023-02-12T05:11:11.767Z,15.57
2023-02-12T05:16:16.164Z,8.70
2023-02-12T05:21:21.915Z,7.10
2023-02-12T05:26:26.373Z,10.55
2023-02-12T05:31:30.994Z,9.10
2023-02-12T05:36:36.572Z,8.57
2023-02-12T05:41:40.956Z,11.10
2023-02-12T05:51:51.927Z,8.77
2023-02-12T05:56:56.474Z,6.50
2023-02-12T06:02:00.821Z,6.70
2023-02-12T06:07:07.479Z,5.40
2023-02-12T06:12:11.732Z,7.70
2023-02-12T06:17:16.366Z,8.52
2023-02-12T06:27:26.598Z,8.73
2023-02-12T06:32:30.965Z,10.07
2023-02-12T06:37:38.357Z,8.73
2023-02-12T06:42:42.859Z,5.20
2023-02-12T06:47:47.479Z,4.75
2023-02-12T06:57:57.300Z,7.60
2023-02-12T07:03:02.251Z,8.65
2023-02-12T07:08:07.968Z,6.50
2023-02-12T07:13:12.613Z,4.40
2023-02-12T07:18:16.766Z,11.85
2023-02-12T07:23:22.570Z,7.60
2023-02-12T07:28:27.576Z,14.43
2023-02-12T07:33:32.108Z,13.05
2023-02-12T07:38:39.891Z,13.30
2023-02-12T07:43:46.542Z,7.72
2023-02-12T07:48:52.728Z,10.15
2023-02-12T07:53:58.270Z,6.00
2023-02-12T07:59:04.743Z,9.13
2023-02-12T08:04:11.993Z,7.93
2023-02-12T08:09:21.007Z,3.85
2023-02-12T08:14:25.816Z,8.07
2023-02-12T08:19:29.976Z,5.75
2023-02-12T08:24:35.599Z,3.10
2023-02-12T08:29:40.781Z,4.55
2023-02-12T08:34:44.990Z,9.18
2023-02-12T08:39:50.814Z,5.15
2023-02-12T08:44:55.507Z,13.70
2023-02-12T08:49:59.855Z,6.88
2023-02-12T08:55:05.974Z,5.60
2023-02-12T09:00:12.600Z,7.03
2023-02-12T09:05:16.905Z,6.18
2023-02-12T09:10:22.954Z,4.78
2023-02-12T09:15:27.579Z,6.80
2023-02-12T09:20:32.154Z,6.57
2023-02-12T09:25:41.526Z,9.00
2023-02-12T09:30:46.194Z,7.20
2023-02-12T09:35:50.810Z,7.00
2023-02-12T09:41:39.112Z,13.75
2023-02-12T09:46:51.056Z,4.68
2023-02-12T09:51:56.348Z,8.43
2023-02-12T09:57:06.175Z,4.68
2023-02-12T10:02:15.700Z,4.75
2023-02-12T10:07:39.806Z,5.25
2023-02-12T10:12:54.410Z,5.68
2023-02-12T10:18:10.156Z,5.40
2023-02-12T10:23:49.120Z,8.02
2023-02-12T10:28:56.596Z,7.47
2023-02-12T10:34:00.792Z,6.35
2023-02-12T10:39:17.396Z,4.68
2023-02-12T10:44:23.201Z,4.80
2023-02-12T10:49:27.564Z,6.53
2023-02-12T10:59:40.936Z,8.85
2023-02-12T11:04:45.197Z,9.07
2023-02-12T11:09:52.919Z,10.55
2023-02-12T11:15:01.830Z,4.65
2023-02-12T11:20:28.236Z,7.30
2023-02-12T11:25:35.686Z,7.88
2023-02-12T11:30:53.279Z,8.18
2023-02-12T11:36:02.711Z,7.15
2023-02-12T11:41:25.215Z,9.90
2023-02-12T11:46:31.090Z,8.27
2023-02-12T11:51:35.642Z,9.02
2023-02-12T11:56:46.194Z,13.40
2023-02-12T12:01:55.763Z,8.48
2023-02-12T12:07:04.742Z,10.32
2023-02-12T12:12:18.710Z,14.07
2023-02-12T12:17:49.324Z,11.15
2023-02-12T12:23:00.840Z,10.05
2023-02-12T12:28:26.693Z,7.95
2023-02-12T12:33:42.729Z,11.63
2023-02-12T12:38:59.500Z,7.82
2023-02-12T12:44:23.082Z,8.63
2023-02-12T12:49:46.077Z,9.88
2023-02-12T12:55:13.934Z,9.77
2023-02-12T13:00:42.847Z,8.95
2023-02-12T13:06:09.161Z,11.20
2023-02-12T13:11:32.650Z,7.65
2023-02-12T13:16:44.336Z,9.48
2023-02-12T13:21:58.624Z,8.48
2023-02-12T13:27:06.610Z,7.90
2023-02-12T13:32:18.029Z,11.25
2023-02-12T13:37:36.497Z,8.10
2023-02-12T13:42:52.057Z,7.53
2023-02-12T13:48:33.766Z,7.47
2023-02-12T13:54:00.537Z,7.70
2023-02-12T13:59:06.442Z,8.23
2023-02-12T14:04:31.024Z,8.63
2023-02-12T14:09:42.325Z,9.48
2023-02-12T14:14:50.422Z,6.47
2023-02-12T14:19:58.961Z,10.38
2023-02-12T14:25:26.671Z,11.98
2023-02-12T14:30:38.407Z,9.30
2023-02-12T14:35:46.594Z,11.05
2023-02-12T14:40:53.921Z,10.70
2023-02-12T14:46:20.637Z,13.73
2023-02-12T14:51:42.800Z,10.18
2023-02-12T14:56:50.892Z,10.18
2023-02-12T15:01:56.575Z,13.55
2023-02-12T15:07:08.419Z,17.38
2023-02-12T15:12:21.847Z,12.05
2023-02-12T15:17:31.100Z,15.45
2023-02-12T15:22:41.777Z,12.70
2023-02-12T15:27:50.559Z,18.55
2023-02-12T15:32:56.613Z,19.90
2023-02-12T15:38:02.470Z,16.55
2023-02-12T15:43:19.629Z,15.93
2023-02-12T15:48:30.575Z,13.32
2023-02-12T15:53:35.585Z,15.38
2023-02-12T15:58:48.125Z,22.00
2023-02-12T16:03:54.503Z,19.73
2023-02-12T16:09:04.038Z,21.73
2023-02-12T16:14:22.051Z,19.15
2023-02-12T16:19:29.185Z,24.63
2023-02-12T16:24:36.126Z,24.33
2023-02-12T16:29:47.938Z,32.53
2023-02-12T16:35:02.244Z,29.20
2023-02-12T16:40:34.666Z,40.78
2023-02-12T16:45:45.025Z,40.03
2023-02-12T16:50:53.469Z,40.15
2023-02-12T16:55:58.478Z,59.20
2023-02-12T17:01:05.937Z,54.33
2023-02-12T17:06:12.085Z,40.30
2023-02-12T17:11:17.988Z,40.00
2023-02-12T17:16:31.281Z,47.47
2023-02-12T17:21:39.617Z,45.55
2023-02-12T17:26:43.977Z,47.33
2023-02-12T17:31:50.572Z,48.90
2023-02-12T17:36:55.095Z,47.95
2023-02-12T17:42:00.281Z,52.53
2023-02-12T17:47:06.282Z,54.95
2023-02-12T17:52:11.045Z,59.15
2023-02-12T17:57:15.868Z,82.82
2023-02-12T18:02:21.748Z,72.68
2023-02-12T18:07:26.185Z,60.50
2023-02-12T18:12:32.773Z,60.63
2023-02-12T18:17:38.814Z,68.22
2023-02-12T18:22:45.166Z,60.25
2023-02-12T18:27:49.749Z,55.40
2023-02-12T18:32:55.441Z,83.47
2023-02-12T18:37:59.695Z,100.60
2023-02-12T18:48:09.775Z,120.75
2023-02-12T18:53:14.693Z,116.55
2023-02-12T18:58:18.940Z,117.60
2023-02-12T19:03:25.074Z,111.60
2023-02-12T19:08:29.603Z,109.72
2023-02-12T19:13:34.299Z,110.47
2023-02-12T19:18:40.520Z,95.68
2023-02-12T19:23:45.210Z,93.63
2023-02-12T19:33:59.864Z,87.25
2023-02-12T19:39:06.870Z,86.65
2023-02-12T19:44:17.292Z,82.07
2023-02-12T19:49:26.837Z,77.72
2023-02-12T19:54:31.363Z,78.72
2023-02-12T19:59:36.271Z,80.95
2023-02-12T20:04:41.994Z,74.75
2023-02-12T20:09:46.865Z,72.80
2023-02-12T20:14:51.430Z,65.60
2023-02-12T20:19:57.505Z,68.43
2023-02-12T20:25:01.885Z,55.67
2023-02-12T20:30:09.790Z,57.78
2023-02-12T20:35:16.882Z,50.88
2023-02-12T20:40:21.454Z,52.65
2023-02-12T20:45:26.350Z,52.72
2023-02-12T20:50:31.937Z,54.38
2023-02-12T20:55:36.861Z,54.22
2023-02-12T21:00:41.254Z,51.63
2023-02-12T21:05:47.099Z,67.63
2023-02-12T21:10:58.643Z,56.58
2023-02-12T21:16:09.205Z,60.72
2023-02-12T21:21:18.982Z,77.82
2023-02-12T21:26:26.173Z,82.22
2023-02-12T21:31:33.714Z,85.68
2023-02-12T21:36:41.727Z,100.85
2023-02-12T21:41:46.413Z,107.10
2023-02-12T21:46:51.325Z,99.85
2023-02-12T21:51:59.427Z,104.20
2023-02-12T21:57:03.926Z,99.85
2023-02-12T22:02:10.983Z,137.45
2023-02-12T22:07:16.914Z,113.25
2023-02-12T22:12:21.462Z,121.03
2023-02-12T22:17:25.888Z,110.55
2023-02-12T22:22:31.826Z,99.85
2023-02-12T22:27:36.177Z,90.10
2023-02-12T22:32:40.643Z,68.72
2023-02-12T22:37:46.376Z,70.28
2023-02-12T22:42:50.633Z,74.88
2023-02-12T22:47:55.555Z,65.45
2023-02-12T22:53:01.694Z,73.18
2023-02-12T22:58:06.528Z,69.45
2023-02-12T23:03:10.818Z,70.93
2023-02-12T23:08:16.402Z,69.93
2023-02-12T23:13:29.358Z,64.03
2023-02-12T23:18:34.276Z,62.55
2023-02-12T23:23:40.052Z,78.85
2023-02-12T23:28:44.442Z,67.07
2023-02-12T23:33:49.032Z,68.82
2023-02-12T23:38:54.683Z,71.63
2023-02-12T23:43:59.513Z,62.78
2023-02-12T23:49:04.196Z,70.28
2023-02-12T23:54:10.161Z,65.93
2023-02-12T23:59:14.987Z,52.70
